createdAt,value
2019-01-11T00:01:07.670Z,73.16
2019-01-11T00:02:14.329Z,73.23
2019-01-11T00:03:19.516Z,73.14
2019-01-11T00:04:25.258Z,72.98
2019-01-11T00:05:30.263Z,72.96
2019-01-11T00:06:35.416Z,72.88
2019-01-11T00:07:40.433Z,72.92
2019-01-11T00:08:46.589Z,72.99
2019-01-11T00:09:51.698Z,72.91
2019-01-11T00:10:57.091Z,72.78
2019-01-11T00:12:02.053Z,72.79
2019-01-11T00:13:07.183Z,72.85
2019-01-11T00:14:15.392Z,72.93
2019-01-11T00:15:20.435Z,72.97
2019-01-11T00:16:25.537Z,72.93
2019-01-11T00:17:30.677Z,72.96
2019-01-11T00:18:35.696Z,73.09
2019-01-11T00:19:40.724Z,73.18
2019-01-11T00:20:45.779Z,73.20
2019-01-11T00:21:50.816Z,73.18
2019-01-11T00:22:55.911Z,73.06
2019-01-11T00:24:00.955Z,73.06
2019-01-11T00:25:06.524Z,73.05
2019-01-11T00:26:11.898Z,72.91
2019-01-11T00:27:17.260Z,72.87
2019-01-11T00:28:22.639Z,72.80
2019-01-11T00:29:27.998Z,72.67
2019-01-11T00:30:33.069Z,72.61
2019-01-11T00:31:38.802Z,72.57
2019-01-11T00:32:43.736Z,72.59
2019-01-11T00:33:48.860Z,72.69
2019-01-11T00:34:54.128Z,72.81
2019-01-11T00:35:59.165Z,72.82
2019-01-11T00:37:04.330Z,72.87
2019-01-11T00:38:09.361Z,72.95
2019-01-11T00:39:14.501Z,72.86
2019-01-11T00:40:19.816Z,72.71
2019-01-11T00:41:25.198Z,72.59
2019-01-11T00:42:30.576Z,72.62
2019-01-11T00:43:35.636Z,72.77
2019-01-11T00:44:40.745Z,72.82
2019-01-11T00:45:46.177Z,72.84
2019-01-11T00:46:51.186Z,72.91
2019-01-11T00:47:56.590Z,72.83
2019-01-11T00:49:01.617Z,72.73
2019-01-11T00:50:06.951Z,72.57
2019-01-11T00:51:12.067Z,72.54
2019-01-11T00:52:17.100Z,72.45
2019-01-11T00:53:22.446Z,72.34
2019-01-11T00:54:27.696Z,72.38
2019-01-11T00:55:32.806Z,72.36
2019-01-11T00:56:37.846Z,72.32
2019-01-11T00:57:42.937Z,72.26
2019-01-11T00:58:47.982Z,72.21
2019-01-11T00:59:52.951Z,72.09
2019-01-11T01:00:58.073Z,71.98
2019-01-11T01:02:03.171Z,72.10
2019-01-11T01:03:08.627Z,72.31
2019-01-11T01:04:13.943Z,72.41
2019-01-11T01:05:19.579Z,72.55
2019-01-11T01:06:24.704Z,72.69
2019-01-11T01:07:30.735Z,72.71
2019-01-11T01:08:35.809Z,72.75
2019-01-11T01:09:40.937Z,72.70
2019-01-11T01:10:47.415Z,72.84
2019-01-11T01:11:52.461Z,72.87
2019-01-11T01:12:57.548Z,72.78
2019-01-11T01:14:02.666Z,72.72
2019-01-11T01:15:14.367Z,72.69
2019-01-11T01:16:19.523Z,72.61
2019-01-11T01:17:24.592Z,72.49
2019-01-11T01:18:29.673Z,72.36
2019-01-11T01:19:34.772Z,72.31
2019-01-11T01:20:39.825Z,72.43
2019-01-11T01:21:44.925Z,72.58
2019-01-11T01:22:50.015Z,72.58
2019-01-11T01:23:55.566Z,72.48
2019-01-11T01:25:00.707Z,72.56
2019-01-11T01:26:06.092Z,72.64
2019-01-11T01:27:11.262Z,72.67
2019-01-11T01:28:16.382Z,72.59
2019-01-11T01:29:22.045Z,72.47
2019-01-11T01:30:27.150Z,72.48
2019-01-11T01:31:32.685Z,72.45
2019-01-11T01:32:38.390Z,72.44
2019-01-11T01:33:43.537Z,72.39
2019-01-11T01:34:48.661Z,72.28
2019-01-11T01:35:53.755Z,72.26
2019-01-11T01:36:58.851Z,72.28
2019-01-11T01:38:04.393Z,72.23
2019-01-11T01:39:09.653Z,72.17
2019-01-11T01:40:15.324Z,72.16
2019-01-11T01:41:20.450Z,72.25
2019-01-11T01:42:25.797Z,72.32
2019-01-11T01:43:30.926Z,72.38
2019-01-11T01:44:36.002Z,72.49
2019-01-11T01:45:41.464Z,72.54
2019-01-11T01:46:46.555Z,72.73
2019-01-11T01:47:51.660Z,72.91
2019-01-11T01:48:56.783Z,73.09
2019-01-11T01:50:01.986Z,73.29
2019-01-11T01:51:07.009Z,73.45
2019-01-11T01:52:12.157Z,73.59
2019-01-11T01:53:17.208Z,73.76
2019-01-11T01:54:22.522Z,73.85
2019-01-11T01:55:27.589Z,73.92
2019-01-11T01:56:32.744Z,74.16
2019-01-11T01:57:37.974Z,74.26
2019-01-11T01:58:42.926Z,74.30
2019-01-11T01:59:48.037Z,74.18
2019-01-11T02:00:53.186Z,74.19
2019-01-11T02:01:58.249Z,74.04
2019-01-11T02:03:03.403Z,74.18
2019-01-11T02:04:08.392Z,74.42
2019-01-11T02:05:13.973Z,74.52
2019-01-11T02:06:19.028Z,74.59
2019-01-11T02:07:24.054Z,74.55
2019-01-11T02:08:29.425Z,74.57
2019-01-11T02:09:34.449Z,74.54
2019-01-11T02:10:39.917Z,74.55
2019-01-11T02:11:46.137Z,74.68
2019-01-11T02:12:52.409Z,74.68
2019-01-11T02:13:57.543Z,74.74
2019-01-11T02:15:02.943Z,74.78
2019-01-11T02:16:08.034Z,74.77
2019-01-11T02:17:13.558Z,74.75
2019-01-11T02:18:18.903Z,74.84
2019-01-11T02:19:24.377Z,74.96
2019-01-11T02:20:29.475Z,74.96
2019-01-11T02:21:34.514Z,74.93
2019-01-11T02:22:39.564Z,74.96
2019-01-11T02:23:44.606Z,75.03
2019-01-11T02:24:49.812Z,74.93
2019-01-11T02:25:55.226Z,74.97
2019-01-11T02:27:00.703Z,75.07
2019-01-11T02:28:05.836Z,75.00
2019-01-11T02:29:11.170Z,75.11
2019-01-11T02:30:21.630Z,75.08
2019-01-11T02:31:27.295Z,75.05
2019-01-11T02:32:32.318Z,74.87
2019-01-11T02:33:37.302Z,74.86
2019-01-11T02:34:42.423Z,74.94
2019-01-11T02:35:47.687Z,75.01
2019-01-11T02:36:53.024Z,74.95
2019-01-11T02:37:58.154Z,74.91
2019-01-11T02:39:04.285Z,74.75
2019-01-11T02:40:10.565Z,74.85
2019-01-11T02:41:15.661Z,74.82
2019-01-11T02:42:20.816Z,74.92
2019-01-11T02:43:25.942Z,75.01
2019-01-11T02:44:32.605Z,75.12
2019-01-11T02:45:37.724Z,75.10
2019-01-11T02:46:42.855Z,75.02
2019-01-11T02:47:47.996Z,74.99
2019-01-11T02:48:53.340Z,74.99
2019-01-11T02:49:58.623Z,75.05
2019-01-11T02:51:03.739Z,75.12
2019-01-11T02:52:08.841Z,75.07
2019-01-11T02:53:13.883Z,75.15
2019-01-11T02:54:18.979Z,75.36
2019-01-11T02:55:24.306Z,75.41
2019-01-11T02:56:29.336Z,75.39
2019-01-11T02:57:34.760Z,75.30
2019-01-11T02:58:40.088Z,75.16
2019-01-11T02:59:45.487Z,75.20
2019-01-11T03:00:50.887Z,75.40
2019-01-11T03:01:55.849Z,75.50
2019-01-11T03:03:01.157Z,75.56
2019-01-11T03:04:06.425Z,75.50
2019-01-11T03:05:12.257Z,75.41
2019-01-11T03:06:17.429Z,75.24
2019-01-11T03:07:22.541Z,75.27
2019-01-11T03:08:27.648Z,75.32
2019-01-11T03:09:32.950Z,75.56
2019-01-11T03:10:37.995Z,75.66
2019-01-11T03:11:43.069Z,75.86
2019-01-11T03:12:48.505Z,75.94
2019-01-11T03:13:53.598Z,76.10
2019-01-11T03:14:59.702Z,76.26
2019-01-11T03:16:04.752Z,76.34
2019-01-11T03:17:10.027Z,76.33
2019-01-11T03:18:15.072Z,76.42
2019-01-11T03:19:20.128Z,76.47
2019-01-11T03:20:25.216Z,76.45
2019-01-11T03:21:30.185Z,76.57
2019-01-11T03:22:35.247Z,76.75
2019-01-11T03:23:40.200Z,76.84
2019-01-11T03:24:45.301Z,76.76
2019-01-11T03:25:50.412Z,76.71
2019-01-11T03:26:55.436Z,76.67
2019-01-11T03:28:00.673Z,76.69
2019-01-11T03:29:05.797Z,76.62
2019-01-11T03:30:14.211Z,76.69
2019-01-11T03:31:31.576Z,76.76
2019-01-11T03:32:36.606Z,76.71
2019-01-11T03:33:41.568Z,76.77
2019-01-11T03:35:08.313Z,76.91
2019-01-11T03:36:13.523Z,77.07
2019-01-11T03:37:18.573Z,77.04
2019-01-11T03:38:23.628Z,76.90
2019-01-11T03:39:28.703Z,77.02
2019-01-11T03:40:33.815Z,77.04
2019-01-11T03:41:57.945Z,77.10
2019-01-11T03:43:03.252Z,77.26
2019-01-11T03:44:08.346Z,77.38
2019-01-11T03:45:15.196Z,77.48
2019-01-11T03:46:20.328Z,77.56
2019-01-11T03:47:25.743Z,77.50
2019-01-11T03:48:30.704Z,77.36
2019-01-11T03:49:35.810Z,77.34
2019-01-11T03:50:40.877Z,77.30
2019-01-11T03:51:46.158Z,77.17
2019-01-11T03:52:51.269Z,76.95
2019-01-11T03:53:56.360Z,76.95
2019-01-11T03:55:01.426Z,77.02
2019-01-11T03:56:07.992Z,77.02
2019-01-11T03:57:13.033Z,77.06
2019-01-11T03:58:18.097Z,77.26
2019-01-11T03:59:23.116Z,77.29
2019-01-11T04:00:28.168Z,77.27
2019-01-11T04:01:33.228Z,77.28
2019-01-11T04:02:38.261Z,77.26
2019-01-11T04:03:43.413Z,77.24
2019-01-11T04:04:48.519Z,77.37
2019-01-11T04:05:53.560Z,77.47
2019-01-11T04:06:58.621Z,77.41
2019-01-11T04:08:03.730Z,77.35
2019-01-11T04:09:10.517Z,77.34
2019-01-11T04:10:17.916Z,77.47
2019-01-11T04:11:22.961Z,77.43
2019-01-11T04:12:28.287Z,77.43
2019-01-11T04:13:34.609Z,77.50
2019-01-11T04:14:39.725Z,77.63
2019-01-11T04:15:44.838Z,77.65
2019-01-11T04:16:49.953Z,77.61
2019-01-11T04:18:15.483Z,77.65
2019-01-11T04:19:20.492Z,77.62
2019-01-11T04:20:25.600Z,77.29
2019-01-11T04:21:30.646Z,77.33
2019-01-11T04:22:39.769Z,77.30
2019-01-11T04:23:44.816Z,77.27
2019-01-11T04:25:04.382Z,77.22
2019-01-11T04:26:09.505Z,77.12
2019-01-11T04:27:14.750Z,76.97
2019-01-11T04:28:20.110Z,77.06
2019-01-11T04:29:25.968Z,77.08
2019-01-11T04:30:30.927Z,77.02
2019-01-11T04:31:35.880Z,76.98
2019-01-11T04:32:40.916Z,77.11
2019-01-11T04:33:45.968Z,77.18
2019-01-11T04:34:51.121Z,77.12
2019-01-11T04:35:56.311Z,77.13
2019-01-11T04:37:04.335Z,77.32
2019-01-11T04:38:09.445Z,77.37
2019-01-11T04:39:14.725Z,77.36
2019-01-11T04:40:20.266Z,77.33
2019-01-11T04:41:25.292Z,77.22
2019-01-11T04:42:30.922Z,77.06
2019-01-11T04:43:36.243Z,77.24
2019-01-11T04:44:41.204Z,77.25
2019-01-11T04:45:46.315Z,77.20
2019-01-11T04:46:51.366Z,77.20
2019-01-11T04:47:56.725Z,77.35
2019-01-11T04:49:01.748Z,77.44
2019-01-11T04:50:09.570Z,77.47
2019-01-11T04:51:15.016Z,77.52
2019-01-11T04:52:20.505Z,77.32
2019-01-11T04:53:25.557Z,77.33
2019-01-11T04:54:30.604Z,77.42
2019-01-11T04:55:35.696Z,77.49
2019-01-11T04:56:40.777Z,77.55
2019-01-11T04:57:45.806Z,77.44
2019-01-11T04:58:50.843Z,77.47
2019-01-11T04:59:55.868Z,77.53
2019-01-11T05:01:01.237Z,77.45
2019-01-11T05:02:06.354Z,77.45
2019-01-11T05:03:11.474Z,77.40
2019-01-11T05:04:16.499Z,77.36
2019-01-11T05:05:22.268Z,77.44
2019-01-11T05:06:27.600Z,77.40
2019-01-11T05:07:32.654Z,77.54
2019-01-11T05:08:37.935Z,77.49
2019-01-11T05:09:42.961Z,77.40
2019-01-11T05:10:48.402Z,77.35
2019-01-11T05:11:53.777Z,77.45
2019-01-11T05:13:05.706Z,77.45
2019-01-11T05:14:11.146Z,77.31
2019-01-11T05:15:16.198Z,77.27
2019-01-11T05:16:21.966Z,77.31
2019-01-11T05:17:27.057Z,77.32
2019-01-11T05:18:32.031Z,77.25
2019-01-11T05:19:37.334Z,77.26
2019-01-11T05:20:43.365Z,77.42
2019-01-11T05:21:48.669Z,77.58
2019-01-11T05:22:53.750Z,77.57
2019-01-11T05:23:58.858Z,77.49
2019-01-11T05:25:04.400Z,77.60
2019-01-11T05:26:09.428Z,77.61
2019-01-11T05:27:14.398Z,77.41
2019-01-11T05:28:19.504Z,77.44
2019-01-11T05:29:24.779Z,77.63
2019-01-11T05:30:29.842Z,77.64
2019-01-11T05:31:35.155Z,77.70
2019-01-11T05:32:40.848Z,77.89
2019-01-11T05:33:45.859Z,77.96
2019-01-11T05:34:50.918Z,77.89
2019-01-11T05:35:56.080Z,77.77
2019-01-11T05:37:01.137Z,77.68
2019-01-11T05:38:06.252Z,77.78
2019-01-11T05:39:11.218Z,77.98
2019-01-11T05:40:18.385Z,77.93
2019-01-11T05:41:23.408Z,77.94
2019-01-11T05:42:28.635Z,78.02
2019-01-11T05:43:33.884Z,77.94
2019-01-11T05:44:39.039Z,78.01
2019-01-11T05:45:44.483Z,77.98
2019-01-11T05:46:49.428Z,77.89
2019-01-11T05:47:54.544Z,77.81
2019-01-11T05:48:59.598Z,77.87
2019-01-11T05:50:06.489Z,77.80
2019-01-11T05:51:11.524Z,77.84
2019-01-11T05:52:16.633Z,77.85
2019-01-11T05:53:21.738Z,78.04
2019-01-11T05:54:26.835Z,78.17
2019-01-11T05:55:45.139Z,78.28
2019-01-11T05:56:50.419Z,78.36
2019-01-11T05:58:14.494Z,78.41
2019-01-11T05:59:19.542Z,78.52
2019-01-11T06:00:24.578Z,78.55
2019-01-11T06:01:29.526Z,78.67
2019-01-11T06:02:34.515Z,78.85
2019-01-11T06:03:40.043Z,78.89
2019-01-11T06:04:46.977Z,78.96
2019-01-11T06:05:52.022Z,78.98
2019-01-11T06:07:11.728Z,79.03
2019-01-11T06:08:17.458Z,79.12
2019-01-11T06:09:22.497Z,79.19
2019-01-11T06:10:27.518Z,79.18
2019-01-11T06:11:32.717Z,79.17
2019-01-11T06:12:38.001Z,79.24
2019-01-11T06:13:43.423Z,79.44
2019-01-11T06:14:48.595Z,79.46
2019-01-11T06:15:53.738Z,79.29
2019-01-11T06:16:58.889Z,79.09
2019-01-11T06:18:03.993Z,79.12
2019-01-11T06:19:09.132Z,79.21
2019-01-11T06:20:16.711Z,79.32
2019-01-11T06:21:21.886Z,79.26
2019-01-11T06:22:26.998Z,79.28
2019-01-11T06:23:33.252Z,79.29
2019-01-11T06:24:38.749Z,79.36
2019-01-11T06:25:43.871Z,79.36
2019-01-11T06:26:49.193Z,79.42
2019-01-11T06:27:55.601Z,79.41
2019-01-11T06:29:00.626Z,79.36
2019-01-11T06:30:07.902Z,79.23
2019-01-11T06:31:13.022Z,79.28
2019-01-11T06:32:18.158Z,79.22
2019-01-11T06:33:23.399Z,79.26
2019-01-11T06:34:29.238Z,79.36
2019-01-11T06:35:35.523Z,79.42
2019-01-11T06:36:40.615Z,79.23
2019-01-11T06:37:45.895Z,79.15
2019-01-11T06:38:51.141Z,79.08
2019-01-11T06:39:56.229Z,79.17
2019-01-11T06:41:01.394Z,79.34
2019-01-11T06:42:16.738Z,79.39
2019-01-11T06:43:21.799Z,79.41
2019-01-11T06:44:26.914Z,79.37
2019-01-11T06:45:32.041Z,79.28
2019-01-11T06:46:37.498Z,79.39
2019-01-11T06:47:42.618Z,79.40
2019-01-11T06:48:47.786Z,79.33
2019-01-11T06:49:52.908Z,79.40
2019-01-11T06:50:58.411Z,79.32
2019-01-11T06:52:03.626Z,79.31
2019-01-11T06:53:08.671Z,79.37
2019-01-11T06:54:13.791Z,79.51
2019-01-11T06:55:18.959Z,79.65
2019-01-11T06:56:24.092Z,79.76
2019-01-11T06:57:29.289Z,79.71
2019-01-11T06:58:34.359Z,79.78
2019-01-11T06:59:39.634Z,79.87
2019-01-11T07:00:44.773Z,79.78
2019-01-11T07:01:49.970Z,79.70
2019-01-11T07:02:55.059Z,79.76
2019-01-11T07:04:00.145Z,79.68
2019-01-11T07:05:06.405Z,79.64
2019-01-11T07:06:11.515Z,79.69
2019-01-11T07:07:16.553Z,79.69
2019-01-11T07:08:21.861Z,79.75
2019-01-11T07:09:26.966Z,79.71
2019-01-11T07:10:32.360Z,79.89
2019-01-11T07:11:37.466Z,79.96
2019-01-11T07:12:43.268Z,79.76
2019-01-11T07:13:48.325Z,79.86
2019-01-11T07:14:54.325Z,79.79
2019-01-11T07:15:59.600Z,79.76
2019-01-11T07:17:05.805Z,79.84
2019-01-11T07:18:10.841Z,80.00
2019-01-11T07:19:15.907Z,79.92
2019-01-11T07:20:21.712Z,79.88
2019-01-11T07:21:26.983Z,79.94
2019-01-11T07:22:32.307Z,79.96
2019-01-11T07:23:37.386Z,80.08
2019-01-11T07:24:42.607Z,80.15
2019-01-11T07:25:48.791Z,80.15
2019-01-11T07:26:54.262Z,80.12
2019-01-11T07:28:02.002Z,80.16
2019-01-11T07:29:07.280Z,80.22
2019-01-11T07:30:13.167Z,80.27
2019-01-11T07:31:21.585Z,80.28
2019-01-11T07:32:26.697Z,80.25
2019-01-11T07:33:32.318Z,80.14
2019-01-11T07:34:37.295Z,80.08
2019-01-11T07:35:51.995Z,79.95
2019-01-11T07:36:58.106Z,79.94
2019-01-11T07:38:03.236Z,79.88
2019-01-11T07:39:19.645Z,79.97
2019-01-11T07:40:24.823Z,79.90
2019-01-11T07:41:30.004Z,79.93
2019-01-11T07:42:35.099Z,80.07
2019-01-11T07:43:40.090Z,80.10
2019-01-11T07:44:45.467Z,80.06
2019-01-11T07:45:50.686Z,80.10
2019-01-11T07:46:56.340Z,80.25
2019-01-11T07:48:01.309Z,80.28
2019-01-11T07:49:06.389Z,80.20
2019-01-11T07:50:11.521Z,80.18
2019-01-11T07:51:16.679Z,80.22
2019-01-11T07:52:21.786Z,80.21
2019-01-11T07:53:26.891Z,80.24
2019-01-11T07:54:31.942Z,80.24
2019-01-11T07:55:37.066Z,80.30
2019-01-11T07:56:42.221Z,80.27
2019-01-11T07:57:47.223Z,80.09
2019-01-11T07:58:52.359Z,80.03
2019-01-11T07:59:57.691Z,80.16
2019-01-11T08:01:02.820Z,80.29
2019-01-11T08:02:08.118Z,80.24
2019-01-11T08:03:13.546Z,80.29
2019-01-11T08:04:18.706Z,80.35
2019-01-11T08:05:24.080Z,80.39
2019-01-11T08:06:29.205Z,80.37
2019-01-11T08:07:34.318Z,80.43
2019-01-11T08:08:39.420Z,80.55
2019-01-11T08:09:46.402Z,80.53
2019-01-11T08:10:51.541Z,80.57
2019-01-11T08:11:56.752Z,80.63
2019-01-11T08:13:02.033Z,80.61
2019-01-11T08:14:08.502Z,80.64
2019-01-11T08:15:14.014Z,80.73
2019-01-11T08:16:19.140Z,80.88
2019-01-11T08:17:24.270Z,80.81
2019-01-11T08:18:29.399Z,80.75
2019-01-11T08:19:34.597Z,80.68
2019-01-11T08:20:39.704Z,80.73
2019-01-11T08:21:44.809Z,80.58
2019-01-11T08:22:49.863Z,80.46
2019-01-11T08:23:55.034Z,80.55
2019-01-11T08:25:03.767Z,80.43
2019-01-11T08:26:08.877Z,80.34
2019-01-11T08:27:13.915Z,80.40
2019-01-11T08:28:19.989Z,80.23
2019-01-11T08:29:25.705Z,80.26
2019-01-11T08:30:30.819Z,80.30
2019-01-11T08:31:36.278Z,80.28
2019-01-11T08:32:41.646Z,80.36
2019-01-11T08:33:47.148Z,80.47
2019-01-11T08:34:52.290Z,80.38
2019-01-11T08:35:57.426Z,80.38
2019-01-11T08:37:02.440Z,80.46
2019-01-11T08:38:07.604Z,80.49
2019-01-11T08:39:12.762Z,80.56
2019-01-11T08:40:17.730Z,80.54
2019-01-11T08:41:23.368Z,80.53
2019-01-11T08:42:29.012Z,80.56
2019-01-11T08:43:34.021Z,80.58
2019-01-11T08:44:39.197Z,80.63
2019-01-11T08:45:44.351Z,80.72
2019-01-11T08:46:49.695Z,80.81
2019-01-11T08:47:54.773Z,80.80
2019-01-11T08:48:59.875Z,80.80
2019-01-11T08:50:07.323Z,80.81
2019-01-11T08:51:12.389Z,80.66
2019-01-11T08:52:17.445Z,80.60
2019-01-11T08:53:23.081Z,80.47
2019-01-11T08:54:28.174Z,80.48
2019-01-11T08:55:33.176Z,80.54
2019-01-11T08:56:38.292Z,80.50
2019-01-11T08:57:43.432Z,80.47
2019-01-11T08:58:48.561Z,80.56
2019-01-11T08:59:53.660Z,80.52
2019-01-11T09:00:59.097Z,80.49
2019-01-11T09:02:04.176Z,80.58
2019-01-11T09:03:09.227Z,80.54
2019-01-11T09:04:14.266Z,80.51
2019-01-11T09:05:20.072Z,80.48
2019-01-11T09:06:25.104Z,80.43
2019-01-11T09:07:30.152Z,80.56
2019-01-11T09:08:35.259Z,80.48
2019-01-11T09:09:40.386Z,80.42
2019-01-11T09:10:45.498Z,80.32
2019-01-11T09:11:50.556Z,80.26
2019-01-11T09:12:55.582Z,80.27
2019-01-11T09:14:00.704Z,80.36
2019-01-11T09:15:06.482Z,80.31
2019-01-11T09:16:11.542Z,80.21
2019-01-11T09:17:17.732Z,80.19
2019-01-11T09:18:51.199Z,80.19
2019-01-11T09:19:56.250Z,80.21
2019-01-11T09:21:01.372Z,80.19
2019-01-11T09:22:06.497Z,80.33
2019-01-11T09:23:11.965Z,80.34
2019-01-11T09:24:17.009Z,80.22
2019-01-11T09:25:22.159Z,80.18
2019-01-11T09:26:27.272Z,80.18
2019-01-11T09:27:32.220Z,80.21
2019-01-11T09:28:37.327Z,80.22
2019-01-11T09:29:42.430Z,80.21
2019-01-11T09:30:48.592Z,80.12
2019-01-11T09:31:53.786Z,80.07
2019-01-11T09:32:58.915Z,80.02
2019-01-11T09:34:04.063Z,79.96
2019-01-11T09:35:09.590Z,79.98
2019-01-11T09:36:14.806Z,79.98
2019-01-11T09:37:19.991Z,79.89
2019-01-11T09:38:25.209Z,79.97
2019-01-11T09:39:30.429Z,79.88
2019-01-11T09:40:35.580Z,79.79
2019-01-11T09:41:40.648Z,79.81
2019-01-11T09:42:45.770Z,79.83
2019-01-11T09:43:50.803Z,79.98
2019-01-11T09:44:55.834Z,79.98
2019-01-11T09:46:00.951Z,80.10
2019-01-11T09:47:06.284Z,80.21
2019-01-11T09:48:11.269Z,80.35
2019-01-11T09:49:16.379Z,80.52
2019-01-11T09:50:21.454Z,80.58
2019-01-11T09:51:26.735Z,80.69
2019-01-11T09:52:31.700Z,80.63
2019-01-11T09:53:36.863Z,80.56
2019-01-11T09:54:42.085Z,80.56
2019-01-11T09:55:47.177Z,80.59
2019-01-11T09:56:52.333Z,80.50
2019-01-11T09:57:57.580Z,80.45
2019-01-11T09:59:02.805Z,80.39
2019-01-11T10:00:11.070Z,80.30
2019-01-11T10:01:16.486Z,80.28
2019-01-11T10:02:38.552Z,80.30
2019-01-11T10:03:43.655Z,80.27
2019-01-11T10:04:48.821Z,80.34
2019-01-11T10:05:53.853Z,80.34
2019-01-11T10:07:10.395Z,80.47
2019-01-11T10:08:15.568Z,80.46
2019-01-11T10:09:20.574Z,80.55
2019-01-11T10:10:26.856Z,80.50
2019-01-11T10:11:31.972Z,80.61
2019-01-11T10:12:36.954Z,80.46
2019-01-11T10:13:42.081Z,80.39
2019-01-11T10:14:47.161Z,80.38
2019-01-11T10:15:53.541Z,80.37
2019-01-11T10:16:58.687Z,80.35
2019-01-11T10:18:03.933Z,80.37
2019-01-11T10:19:09.260Z,80.48
2019-01-11T10:20:14.912Z,80.33
2019-01-11T10:21:23.112Z,80.30
2019-01-11T10:22:26.811Z,80.29
2019-01-11T10:23:31.786Z,80.21
2019-01-11T10:24:37.200Z,80.18
2019-01-11T10:25:42.334Z,80.22
2019-01-11T10:26:47.296Z,80.27
2019-01-11T10:27:52.411Z,80.37
2019-01-11T10:28:57.444Z,80.52
2019-01-11T10:30:02.504Z,80.49
2019-01-11T10:31:07.774Z,80.58
2019-01-11T10:32:12.799Z,80.55
2019-01-11T10:33:18.785Z,80.46
2019-01-11T10:34:23.831Z,80.50
2019-01-11T10:35:28.877Z,80.49
2019-01-11T10:36:34.000Z,80.58
2019-01-11T10:37:39.272Z,80.61
2019-01-11T10:38:44.311Z,80.61
2019-01-11T10:39:49.935Z,80.55
2019-01-11T10:40:55.017Z,80.41
2019-01-11T10:42:00.412Z,80.32
2019-01-11T10:43:05.544Z,80.27
2019-01-11T10:44:10.691Z,80.16
2019-01-11T10:45:21.524Z,80.18
2019-01-11T10:46:34.894Z,80.29
2019-01-11T10:47:39.907Z,80.25
2019-01-11T10:48:45.206Z,80.31
2019-01-11T10:49:50.352Z,80.32
2019-01-11T10:50:55.486Z,80.38
2019-01-11T10:52:00.443Z,80.38
2019-01-11T10:53:05.533Z,80.48
2019-01-11T10:54:17.972Z,80.48
2019-01-11T10:55:24.176Z,80.58
2019-01-11T10:56:29.410Z,80.69
2019-01-11T10:57:34.838Z,80.69
2019-01-11T10:58:39.925Z,80.75
2019-01-11T10:59:45.042Z,80.67
2019-01-11T11:00:50.459Z,80.58
2019-01-11T11:01:55.583Z,80.58
2019-01-11T11:03:00.757Z,80.60
2019-01-11T11:04:05.999Z,80.57
2019-01-11T11:05:11.241Z,80.56
2019-01-11T11:06:16.723Z,80.62
2019-01-11T11:07:21.819Z,80.67
2019-01-11T11:08:37.120Z,80.79
2019-01-11T11:09:43.029Z,80.79
2019-01-11T11:10:54.493Z,80.79
2019-01-11T11:11:59.640Z,80.79
2019-01-11T11:13:04.746Z,80.76
2019-01-11T11:14:10.086Z,80.64
2019-01-11T11:15:16.182Z,80.63
2019-01-11T11:16:21.334Z,80.68
2019-01-11T11:17:26.453Z,80.78
2019-01-11T11:18:31.639Z,80.87
2019-01-11T11:19:36.792Z,81.04
2019-01-11T11:20:41.872Z,81.04
2019-01-11T11:21:46.935Z,81.06
2019-01-11T11:22:52.747Z,81.01
2019-01-11T11:23:58.117Z,81.12
2019-01-11T11:25:04.129Z,81.12
2019-01-11T11:26:09.291Z,80.99
2019-01-11T11:27:14.422Z,81.04
2019-01-11T11:28:19.584Z,80.93
2019-01-11T11:29:25.078Z,80.86
2019-01-11T11:30:30.199Z,80.83
2019-01-11T11:31:35.243Z,80.76
2019-01-11T11:32:57.992Z,80.79
2019-01-11T11:34:02.967Z,80.79
2019-01-11T11:35:08.416Z,80.72
2019-01-11T11:36:14.570Z,80.70
2019-01-11T11:37:19.712Z,80.68
2019-01-11T11:38:24.773Z,80.67
2019-01-11T11:39:29.973Z,80.71
2019-01-11T11:40:35.206Z,80.78
2019-01-11T11:41:40.417Z,80.75
2019-01-11T11:42:45.446Z,80.78
2019-01-11T11:43:50.608Z,80.80
2019-01-11T11:44:55.731Z,80.73
2019-01-11T11:46:00.842Z,80.78
2019-01-11T11:47:05.956Z,80.86
2019-01-11T11:48:14.987Z,80.75
2019-01-11T11:49:20.049Z,80.69
2019-01-11T11:50:25.216Z,80.79
2019-01-11T11:51:30.349Z,80.93
2019-01-11T11:52:35.534Z,81.00
2019-01-11T11:53:40.891Z,81.02
2019-01-11T11:54:46.379Z,81.05
2019-01-11T11:55:51.785Z,81.11
2019-01-11T11:56:56.920Z,81.18
2019-01-11T11:58:01.891Z,81.21
2019-01-11T11:59:07.054Z,81.34
2019-01-11T12:00:15.331Z,81.29
2019-01-11T12:01:20.715Z,81.28
2019-01-11T12:02:25.861Z,81.32
2019-01-11T12:03:31.959Z,81.40
2019-01-11T12:04:37.063Z,81.30
2019-01-11T12:05:42.290Z,81.19
2019-01-11T12:06:47.723Z,81.30
2019-01-11T12:07:52.895Z,81.39
2019-01-11T12:08:58.510Z,81.47
2019-01-11T12:10:04.095Z,81.51
2019-01-11T12:11:09.168Z,81.51
2019-01-11T12:12:14.302Z,81.41
2019-01-11T12:13:19.548Z,81.39
2019-01-11T12:14:24.782Z,81.33
2019-01-11T12:15:29.924Z,81.32
2019-01-11T12:16:35.034Z,81.41
2019-01-11T12:17:40.253Z,81.50
2019-01-11T12:18:45.580Z,81.49
2019-01-11T12:19:50.880Z,81.52
2019-01-11T12:20:56.090Z,81.48
2019-01-11T12:22:01.725Z,81.44
2019-01-11T12:23:06.975Z,81.61
2019-01-11T12:24:12.222Z,81.71
2019-01-11T12:25:17.523Z,81.79
2019-01-11T12:26:23.238Z,81.76
2019-01-11T12:27:28.411Z,81.76
2019-01-11T12:28:35.024Z,81.84
2019-01-11T12:29:40.118Z,81.87
2019-01-11T12:30:45.141Z,81.79
2019-01-11T12:31:50.354Z,81.82
2019-01-11T12:32:55.510Z,81.78
2019-01-11T12:34:00.648Z,81.81
2019-01-11T12:35:06.282Z,81.82
2019-01-11T12:36:11.437Z,81.92
2019-01-11T12:37:16.854Z,81.91
2019-01-11T12:38:22.925Z,81.93
2019-01-11T12:39:28.049Z,82.06
2019-01-11T12:40:33.140Z,82.06
2019-01-11T12:41:38.257Z,82.06
2019-01-11T12:42:43.395Z,82.06
2019-01-11T12:43:49.852Z,81.92
2019-01-11T12:44:55.187Z,81.85
2019-01-11T12:46:00.470Z,81.96
2019-01-11T12:47:05.608Z,81.95
2019-01-11T12:48:10.865Z,82.01
2019-01-11T12:49:16.092Z,82.02
2019-01-11T12:50:23.704Z,82.02
2019-01-11T12:51:28.742Z,82.04
2019-01-11T12:52:33.738Z,82.03
2019-01-11T12:53:38.936Z,82.06
2019-01-11T12:54:44.015Z,82.04
2019-01-11T12:55:49.160Z,82.15
2019-01-11T12:56:54.218Z,82.25
2019-01-11T12:57:59.323Z,82.18
2019-01-11T12:59:04.490Z,82.19
2019-01-11T13:00:12.241Z,82.20
2019-01-11T13:01:17.541Z,82.14
2019-01-11T13:02:24.327Z,82.09
2019-01-11T13:03:29.539Z,82.08
2019-01-11T13:04:34.656Z,82.01
2019-01-11T13:05:41.182Z,82.03
2019-01-11T13:06:46.554Z,82.08
2019-01-11T13:07:51.617Z,82.18
2019-01-11T13:08:56.762Z,82.19
2019-01-11T13:10:02.125Z,82.21
2019-01-11T13:11:07.279Z,82.15
2019-01-11T13:12:12.379Z,82.15
2019-01-11T13:13:17.465Z,82.16
2019-01-11T13:14:22.866Z,82.19
2019-01-11T13:15:27.945Z,82.17
2019-01-11T13:16:33.042Z,82.21
2019-01-11T13:17:37.947Z,82.24
2019-01-11T13:18:43.176Z,82.32
2019-01-11T13:19:48.159Z,82.22
2019-01-11T13:20:53.434Z,82.18
2019-01-11T13:22:00.596Z,82.20
2019-01-11T13:23:06.478Z,82.21
2019-01-11T13:24:11.731Z,82.27
2019-01-11T13:25:16.898Z,82.32
2019-01-11T13:26:22.039Z,82.30
2019-01-11T13:27:27.511Z,82.38
2019-01-11T13:28:32.649Z,82.43
2019-01-11T13:29:37.977Z,82.43
2019-01-11T13:30:43.068Z,82.35
2019-01-11T13:31:48.199Z,82.30
2019-01-11T13:32:53.340Z,82.38
2019-01-11T13:33:58.398Z,82.48
2019-01-11T13:35:03.670Z,82.46
2019-01-11T13:36:18.934Z,82.49
2019-01-11T13:37:24.409Z,82.53
2019-01-11T13:38:29.611Z,82.63
2019-01-11T13:39:35.944Z,82.56
2019-01-11T13:40:40.980Z,82.58
2019-01-11T13:41:46.028Z,82.64
2019-01-11T13:42:51.186Z,82.66
2019-01-11T13:43:56.159Z,82.71
2019-01-11T13:45:01.258Z,82.71
2019-01-11T13:46:06.415Z,82.68
2019-01-11T13:47:11.558Z,82.71
2019-01-11T13:48:16.726Z,82.77
2019-01-11T13:49:21.786Z,82.88
2019-01-11T13:50:34.790Z,82.85
2019-01-11T13:51:39.846Z,82.84
2019-01-11T13:52:45.041Z,82.91
2019-01-11T13:53:50.275Z,82.86
2019-01-11T13:54:55.595Z,82.92
2019-01-11T13:56:00.838Z,82.92
2019-01-11T13:57:05.980Z,83.01
2019-01-11T13:58:11.025Z,83.04
2019-01-11T13:59:16.447Z,83.05
2019-01-11T14:00:21.579Z,83.15
2019-01-11T14:01:26.713Z,83.20
2019-01-11T14:02:32.204Z,83.26
2019-01-11T14:03:37.265Z,83.32
2019-01-11T14:04:42.336Z,83.35
2019-01-11T14:05:47.591Z,83.46
2019-01-11T14:06:52.651Z,83.48